Terminal Aerodrome Forecast
Issued by NWS

Home | Current Version | Previous Version | Text Only | Print | Product List | Glossary On
Versions: 1 2 3 4 5 6 7 8 9 10 11 12 13 14 15 16 17 18 19 20 21 22 23 24
368
FTUS45 KGJT 142320
TAFMTJ
TAF
KMTJ 142320Z 1500/1524 VRB04KT P6SM BKN080 WS020/29030KT
     FM150300 VRB03KT P6SM SCT070
     FM150600 19004KT P6SM BKN130
     FM151500 16005KT P6SM SCT110
     FM151700 22004KT P6SM SCT150
     FM152000 30004KT P6SM SCT250=

USA.gov is the U.S. government's official web portal to all federal, state and local government web resources and services.